createdAt,value
2022-10-17T00:00:59.838Z,102262.78
2022-10-17T00:03:26.993Z,102250.34
2022-10-17T00:05:54.038Z,102254.09
2022-10-17T00:08:21.477Z,102257.88
2022-10-17T00:11:08.497Z,102256.22
2022-10-17T00:13:35.941Z,102262.47
2022-10-17T00:16:02.868Z,102262.66
2022-10-17T00:18:29.894Z,102259.09
2022-10-17T00:20:56.863Z,102261.00
2022-10-17T00:23:24.155Z,102268.34
2022-10-17T00:26:05.780Z,102267.56
2022-10-17T00:28:33.225Z,102272.00
2022-10-17T00:31:04.566Z,102285.47
2022-10-17T00:33:34.311Z,102275.78
2022-10-17T00:36:07.271Z,102284.81
2022-10-17T00:38:37.315Z,102272.28
2022-10-17T00:41:05.073Z,102280.38
2022-10-17T00:43:58.459Z,102278.66
2022-10-17T00:46:36.687Z,102280.44
2022-10-17T00:49:10.278Z,102279.69
2022-10-17T00:51:53.105Z,102284.13
2022-10-17T00:54:27.577Z,102287.00
2022-10-17T00:56:55.319Z,102279.00
2022-10-17T00:59:23.917Z,102284.41
2022-10-17T01:02:16.841Z,102286.44
2022-10-17T01:04:47.809Z,102293.63
2022-10-17T01:07:14.799Z,102282.06
2022-10-17T01:09:44.678Z,102279.44
2022-10-17T01:12:37.044Z,102285.81
2022-10-17T01:15:50.458Z,102278.78
2022-10-17T01:18:37.665Z,102278.78
2022-10-17T01:21:30.490Z,102278.94
2022-10-17T01:24:44.281Z,102278.19
2022-10-17T01:27:36.225Z,102277.41
2022-10-17T01:30:24.194Z,102275.69
2022-10-17T01:33:18.029Z,102281.94
2022-10-17T01:36:18.919Z,102272.00
2022-10-17T01:38:54.463Z,102274.72
2022-10-17T01:41:39.656Z,102272.97
2022-10-17T01:44:18.417Z,102279.25
2022-10-17T01:46:51.315Z,102292.72
2022-10-17T01:49:24.832Z,102280.22
2022-10-17T01:52:15.202Z,102283.84
2022-10-17T01:55:09.370Z,102281.16
2022-10-17T01:57:42.869Z,102286.66
2022-10-17T02:00:15.588Z,102292.03
2022-10-17T02:02:45.343Z,102289.41
2022-10-17T02:05:12.681Z,102292.09
2022-10-17T02:07:43.357Z,102291.19
2022-10-17T02:10:24.012Z,102284.91
2022-10-17T02:13:18.361Z,102290.31
2022-10-17T02:16:29.597Z,102285.84
2022-10-17T02:19:36.907Z,102291.34
2022-10-17T02:22:25.551Z,102289.78
2022-10-17T02:25:19.689Z,102299.69
2022-10-17T02:28:10.835Z,102306.06
2022-10-17T02:31:03.734Z,102303.53
2022-10-17T02:33:45.196Z,102301.81
2022-10-17T02:36:19.235Z,102295.56
2022-10-17T02:38:46.960Z,102298.13
2022-10-17T02:41:18.432Z,102299.00
2022-10-17T02:43:49.166Z,102294.59
2022-10-17T02:46:22.506Z,102295.72
2022-10-17T02:48:57.146Z,102294.94
2022-10-17T02:51:43.832Z,102285.19
2022-10-17T02:54:34.563Z,102292.41
2022-10-17T02:57:14.992Z,102287.13
2022-10-17T02:59:45.782Z,102293.44
2022-10-17T03:02:13.264Z,102295.38
2022-10-17T03:04:44.347Z,102294.69
2022-10-17T03:07:11.438Z,102301.03
2022-10-17T03:09:38.528Z,102308.25
2022-10-17T03:12:06.217Z,102309.22
2022-10-17T03:14:34.728Z,102305.66
2022-10-17T03:17:04.016Z,102308.44
2022-10-17T03:19:31.419Z,102301.31
2022-10-17T03:21:58.574Z,102304.97
2022-10-17T03:24:25.538Z,102304.06
2022-10-17T03:26:52.482Z,102311.34
2022-10-17T03:29:19.696Z,102306.03
2022-10-17T03:31:47.740Z,102321.28
2022-10-17T03:34:17.692Z,102320.38
2022-10-17T03:36:45.871Z,102321.44
2022-10-17T03:39:13.239Z,102324.16
2022-10-17T03:41:40.301Z,102336.72
2022-10-17T03:44:07.890Z,102339.41
2022-10-17T03:46:35.417Z,102341.34
2022-10-17T03:49:02.476Z,102345.88
2022-10-17T03:51:29.879Z,102339.63
2022-10-17T03:54:03.002Z,102339.69
2022-10-17T03:56:30.080Z,102342.38
2022-10-17T03:59:01.991Z,102337.09
2022-10-17T04:01:30.916Z,102354.19
2022-10-17T04:03:58.157Z,102353.34
2022-10-17T04:06:29.497Z,102357.06
2022-10-17T04:08:56.709Z,102361.59
2022-10-17T04:11:33.207Z,102367.94
2022-10-17T04:14:03.114Z,102368.91
2022-10-17T04:16:30.667Z,102372.47
2022-10-17T04:19:01.720Z,102372.53
2022-10-17T04:21:34.184Z,102375.31
2022-10-17T04:24:07.154Z,102379.06
2022-10-17T04:26:50.132Z,102377.38
2022-10-17T04:29:18.635Z,102377.50
2022-10-17T04:31:49.892Z,102376.69
2022-10-17T04:34:30.803Z,102387.47
2022-10-17T04:36:57.797Z,102394.69
2022-10-17T04:39:24.756Z,102392.00
2022-10-17T04:41:52.196Z,102391.13
2022-10-17T04:44:20.854Z,102396.41
2022-10-17T04:46:51.744Z,102399.13
2022-10-17T04:49:20.003Z,102407.13
2022-10-17T04:51:49.849Z,102401.63
2022-10-17T04:54:23.565Z,102408.69
2022-10-17T04:56:57.578Z,102405.03
2022-10-17T04:59:26.018Z,102405.03
2022-10-17T05:02:04.273Z,102408.59
2022-10-17T05:04:33.201Z,102406.78
2022-10-17T05:07:00.702Z,102412.88
2022-10-17T05:09:48.024Z,102407.41
2022-10-17T05:12:18.103Z,102408.25
2022-10-17T05:14:46.681Z,102403.66
2022-10-17T05:17:14.841Z,102408.97
2022-10-17T05:19:41.867Z,102411.59
2022-10-17T05:22:09.519Z,102415.94
2022-10-17T05:24:36.826Z,102415.94
2022-10-17T05:27:04.247Z,102418.53
2022-10-17T05:29:31.378Z,102417.69
2022-10-17T05:32:06.754Z,102420.38
2022-10-17T05:34:35.195Z,102405.94
2022-10-17T05:37:02.356Z,102421.19
2022-10-17T05:39:29.646Z,102422.03
2022-10-17T05:41:58.261Z,102421.88
2022-10-17T05:44:26.086Z,102426.34
2022-10-17T05:46:57.598Z,102422.66
2022-10-17T05:49:33.397Z,102419.91
2022-10-17T05:52:12.712Z,102419.81
2022-10-17T05:54:55.366Z,102422.34
2022-10-17T05:57:26.335Z,102424.09
2022-10-17T05:59:54.696Z,102424.88
2022-10-17T06:02:22.254Z,102428.41
2022-10-17T06:04:50.559Z,102435.56
2022-10-17T06:07:20.392Z,102444.44
2022-10-17T06:09:49.239Z,102447.06
2022-10-17T06:12:16.978Z,102450.69
2022-10-17T06:14:45.240Z,102454.28
2022-10-17T06:17:15.945Z,102455.22
2022-10-17T06:19:44.931Z,102461.41
2022-10-17T06:22:14.660Z,102468.38
2022-10-17T06:24:42.610Z,102462.00
2022-10-17T06:27:12.118Z,102470.88
2022-10-17T06:29:40.921Z,102464.47
2022-10-17T06:32:11.085Z,102470.66
2022-10-17T06:34:41.934Z,102472.56
2022-10-17T06:37:09.990Z,102478.63
2022-10-17T06:39:39.906Z,102477.59
2022-10-17T06:42:16.585Z,102480.13
2022-10-17T06:45:08.589Z,102483.53
2022-10-17T06:47:53.714Z,102491.34
2022-10-17T06:50:35.826Z,102495.66
2022-10-17T06:53:25.029Z,102493.72
2022-10-17T06:55:54.132Z,102498.06
2022-10-17T06:58:54.782Z,102491.63
2022-10-17T07:01:47.127Z,102494.94
2022-10-17T07:04:15.955Z,102497.44
2022-10-17T07:06:44.161Z,102496.31
2022-10-17T07:09:17.143Z,102497.97
2022-10-17T07:11:45.287Z,102505.03
2022-10-17T07:14:16.282Z,102506.59
2022-10-17T07:16:43.388Z,102516.34
2022-10-17T07:19:19.688Z,102520.72
2022-10-17T07:21:46.793Z,102519.66
2022-10-17T07:24:13.777Z,102518.59
2022-10-17T07:26:45.801Z,102520.25
2022-10-17T07:29:13.511Z,102522.88
2022-10-17T07:31:45.733Z,102528.19
2022-10-17T07:34:13.018Z,102528.97
2022-10-17T07:36:40.849Z,102530.63
2022-10-17T07:39:08.902Z,102538.56
2022-10-17T07:41:38.062Z,102539.28
2022-10-17T07:44:05.879Z,102537.34
2022-10-17T07:46:37.602Z,102536.22
2022-10-17T07:49:05.666Z,102529.75
2022-10-17T07:51:34.132Z,102537.78
2022-10-17T07:54:01.489Z,102533.06
2022-10-17T07:56:29.734Z,102535.66
2022-10-17T08:01:25.908Z,102544.22
2022-10-17T08:03:52.788Z,102546.91
2022-10-17T08:06:19.979Z,102540.47
2022-10-17T08:08:46.890Z,102541.22
2022-10-17T08:11:15.666Z,102544.59
2022-10-17T08:13:43.650Z,102551.78
2022-10-17T08:16:13.331Z,102546.38
2022-10-17T08:18:42.577Z,102553.41
2022-10-17T08:21:11.133Z,102550.63
2022-10-17T08:23:38.273Z,102556.81
2022-10-17T08:26:10.700Z,102554.88
2022-10-17T08:28:40.232Z,102557.56
2022-10-17T08:31:11.706Z,102557.41
2022-10-17T08:33:38.995Z,102554.63
2022-10-17T08:36:07.152Z,102555.31
2022-10-17T08:38:37.589Z,102558.00
2022-10-17T08:41:47.881Z,102550.78
2022-10-17T08:44:41.947Z,102552.59
2022-10-17T08:47:36.568Z,102561.56
2022-10-17T08:50:08.645Z,102564.63
2022-10-17T08:52:49.324Z,102558.19
2022-10-17T08:55:41.491Z,102562.38
2022-10-17T08:58:24.094Z,102559.38
2022-10-17T09:01:24.672Z,102563.31
2022-10-17T09:04:22.908Z,102565.66
2022-10-17T09:07:27.373Z,102560.84
2022-10-17T09:10:04.619Z,102563.09
2022-10-17T09:13:07.707Z,102558.00
2022-10-17T09:16:07.465Z,102557.31
2022-10-17T09:18:40.189Z,102562.19
2022-10-17T09:21:21.256Z,102572.03
2022-10-17T09:24:09.003Z,102560.47
2022-10-17T09:26:39.661Z,102567.25
2022-10-17T09:29:40.177Z,102563.19
2022-10-17T09:32:23.281Z,102563.00
2022-10-17T09:34:53.378Z,102550.06
2022-10-17T09:37:31.509Z,102551.31
2022-10-17T09:39:58.550Z,102552.00
2022-10-17T09:42:28.479Z,102562.53
2022-10-17T09:45:01.468Z,102557.47
2022-10-17T09:47:41.489Z,102552.47
2022-10-17T09:50:28.553Z,102554.47
2022-10-17T09:53:19.650Z,102549.44
2022-10-17T09:55:51.456Z,102548.06
2022-10-17T09:58:20.697Z,102550.41
2022-10-17T10:00:49.202Z,102553.59
2022-10-17T10:03:25.667Z,102555.78
2022-10-17T10:06:01.254Z,102558.84
2022-10-17T10:08:38.206Z,102558.34
2022-10-17T10:11:13.393Z,102556.19
2022-10-17T10:13:43.020Z,102549.47
2022-10-17T10:16:31.895Z,102550.81
2022-10-17T10:18:59.368Z,102554.94
2022-10-17T10:21:27.740Z,102550.19
2022-10-17T10:24:09.834Z,102548.91
2022-10-17T10:26:45.178Z,102557.59
2022-10-17T10:29:49.191Z,102548.06
2022-10-17T10:32:26.878Z,102558.69
2022-10-17T10:35:00.181Z,102556.44
2022-10-17T10:37:39.851Z,102551.59
2022-10-17T10:40:23.488Z,102553.13
2022-10-17T10:42:57.217Z,102548.13
2022-10-17T10:45:47.621Z,102541.44
2022-10-17T10:48:35.893Z,102542.06
2022-10-17T10:51:19.874Z,102541.84
2022-10-17T10:54:21.841Z,102539.59
2022-10-17T10:56:59.300Z,102538.94
2022-10-17T10:59:36.583Z,102548.25
2022-10-17T11:02:30.496Z,102542.50
2022-10-17T11:05:05.334Z,102539.31
2022-10-17T11:07:39.859Z,102539.00
2022-10-17T11:10:39.506Z,102538.88
2022-10-17T11:13:16.201Z,102532.28
2022-10-17T11:15:51.769Z,102530.84
2022-10-17T11:18:35.150Z,102526.72
2022-10-17T11:21:46.638Z,102528.75
2022-10-17T11:24:25.687Z,102520.94
2022-10-17T11:27:01.814Z,102517.13
2022-10-17T11:29:33.044Z,102517.44
2022-10-17T11:32:15.499Z,102519.59
2022-10-17T11:34:56.590Z,102521.31
2022-10-17T11:37:34.468Z,102509.91
2022-10-17T11:40:30.892Z,102511.25
2022-10-17T11:43:20.665Z,102514.50
2022-10-17T11:45:57.347Z,102503.78
2022-10-17T11:48:32.384Z,102512.09
2022-10-17T11:54:20.814Z,102508.56
2022-10-17T11:57:10.761Z,102505.38
2022-10-17T12:00:10.247Z,102505.63
2022-10-17T12:03:24.611Z,102495.75
2022-10-17T12:06:08.636Z,102498.03
2022-10-17T12:08:44.743Z,102494.22
2022-10-17T12:11:56.446Z,102489.91
2022-10-17T12:14:36.710Z,102494.38
2022-10-17T12:17:23.215Z,102485.72
2022-10-17T12:19:50.450Z,102479.06
2022-10-17T12:22:21.763Z,102483.16
2022-10-17T12:24:58.057Z,102482.66
2022-10-17T12:27:45.864Z,102482.41
2022-10-17T12:30:13.531Z,102472.16
2022-10-17T12:33:07.101Z,102472.91
2022-10-17T12:35:37.937Z,102466.22
2022-10-17T12:38:17.003Z,102476.50
2022-10-17T12:40:48.520Z,102470.44
2022-10-17T12:43:15.885Z,102457.81
2022-10-17T12:45:59.156Z,102464.28
2022-10-17T12:48:38.646Z,102456.34
2022-10-17T12:51:35.411Z,102454.50
2022-10-17T12:54:15.212Z,102458.06
2022-10-17T12:56:48.192Z,102458.59
2022-10-17T12:59:22.508Z,102451.75
2022-10-17T13:01:57.706Z,102452.25
2022-10-17T13:04:26.013Z,102449.66
2022-10-17T13:06:58.665Z,102436.25
2022-10-17T13:09:37.425Z,102434.13
2022-10-17T13:12:13.192Z,102434.03
2022-10-17T13:14:43.303Z,102429.78
2022-10-17T13:17:28.291Z,102429.78
2022-10-17T13:19:56.366Z,102426.06
2022-10-17T13:22:28.148Z,102425.53
2022-10-17T13:25:16.020Z,102415.84
2022-10-17T13:27:43.472Z,102421.78
2022-10-17T13:30:27.947Z,102421.16
2022-10-17T13:32:58.225Z,102418.06
2022-10-17T13:35:55.308Z,102415.19
2022-10-17T13:38:17.276Z,102414.94
2022-10-17T13:40:50.023Z,102409.06
2022-10-17T13:43:24.238Z,102417.72
2022-10-17T13:46:02.264Z,102412.13
2022-10-17T13:48:38.315Z,102407.91
2022-10-17T13:51:10.294Z,102400.44
2022-10-17T13:53:42.513Z,102400.44
2022-10-17T13:56:29.969Z,102412.94
2022-10-17T13:59:18.447Z,102404.91
2022-10-17T14:01:45.972Z,102403.75
2022-10-17T14:04:19.905Z,102401.50
2022-10-17T14:06:51.314Z,102399.78
2022-10-17T14:09:26.144Z,102406.09
2022-10-17T14:12:11.165Z,102395.78
2022-10-17T14:15:05.181Z,102399.03
2022-10-17T14:17:29.612Z,102393.00
2022-10-17T14:20:36.329Z,102393.00
2022-10-17T14:23:20.905Z,102388.94
2022-10-17T14:25:41.128Z,102382.88
2022-10-17T14:28:11.735Z,102387.75
2022-10-17T14:30:56.210Z,102388.16
2022-10-17T14:33:30.773Z,102385.94
2022-10-17T14:36:00.720Z,102389.19
2022-10-17T14:38:29.995Z,102383.88
2022-10-17T14:41:29.687Z,102381.41
2022-10-17T14:43:56.245Z,102393.44
2022-10-17T14:46:24.567Z,102394.66
2022-10-17T14:49:02.601Z,102394.06
2022-10-17T14:51:39.961Z,102396.19
2022-10-17T14:54:26.273Z,102387.56
2022-10-17T14:56:54.965Z,102382.47
2022-10-17T14:59:52.363Z,102388.19
2022-10-17T15:02:13.849Z,102386.72
2022-10-17T15:04:41.290Z,102387.97
2022-10-17T15:07:14.530Z,102381.78
2022-10-17T15:09:43.075Z,102384.66
2022-10-17T15:12:20.273Z,102379.22
2022-10-17T15:14:48.614Z,102384.03
2022-10-17T15:17:38.000Z,102380.69
2022-10-17T15:20:20.435Z,102380.09
2022-10-17T15:22:48.678Z,102375.91
2022-10-17T15:25:15.653Z,102378.75
2022-10-17T15:27:42.543Z,102376.28
2022-10-17T15:30:32.220Z,102376.53
2022-10-17T15:32:59.947Z,102379.53
2022-10-17T15:35:28.373Z,102375.31
2022-10-17T15:37:55.861Z,102378.41
2022-10-17T15:40:29.498Z,102376.91
2022-10-17T15:42:57.366Z,102375.56
2022-10-17T15:45:24.458Z,102374.94
2022-10-17T15:47:59.235Z,102379.63
2022-10-17T15:50:29.106Z,102373.72
2022-10-17T15:52:56.590Z,102375.84
2022-10-17T15:55:23.956Z,102387.94
2022-10-17T15:57:51.205Z,102379.28
2022-10-17T16:00:24.837Z,102371.50
2022-10-17T16:02:51.936Z,102372.13
2022-10-17T16:05:29.174Z,102379.81
2022-10-17T16:07:57.858Z,102391.03
2022-10-17T16:10:28.262Z,102392.28
2022-10-17T16:12:56.239Z,102396.34
2022-10-17T16:15:26.599Z,102390.41
2022-10-17T16:17:57.387Z,102391.75
2022-10-17T16:20:26.209Z,102398.50
2022-10-17T16:22:59.892Z,102399.75
2022-10-17T16:25:28.908Z,102407.00
2022-10-17T16:27:59.610Z,102401.78
2022-10-17T16:30:30.123Z,102403.88
2022-10-17T16:32:57.370Z,102401.53
2022-10-17T16:35:33.256Z,102406.34
2022-10-17T16:38:05.572Z,102412.13
2022-10-17T16:40:32.753Z,102413.44
2022-10-17T16:42:59.998Z,102404.81
2022-10-17T16:45:27.169Z,102412.31
2022-10-17T16:47:54.273Z,102416.38
2022-10-17T16:50:21.581Z,102413.16
2022-10-17T16:52:48.748Z,102417.19
2022-10-17T16:55:18.851Z,102417.44
2022-10-17T16:57:46.308Z,102416.03
2022-10-17T17:00:15.948Z,102421.81
2022-10-17T17:02:43.425Z,102418.44
2022-10-17T17:05:10.797Z,102426.03
2022-10-17T17:07:38.019Z,102426.41
2022-10-17T17:10:06.128Z,102421.28
2022-10-17T17:12:35.696Z,102430.66
2022-10-17T17:15:04.325Z,102425.44
2022-10-17T17:17:49.272Z,102429.38
2022-10-17T17:20:25.147Z,102426.97
2022-10-17T17:22:52.899Z,102435.25
2022-10-17T17:25:20.000Z,102433.63
2022-10-17T17:27:47.059Z,102433.84
2022-10-17T17:30:14.081Z,102434.06
2022-10-17T17:32:41.101Z,102443.19
2022-10-17T17:35:09.496Z,102429.00
2022-10-17T17:37:36.602Z,102433.78
2022-10-17T17:40:05.921Z,102437.44
2022-10-17T17:42:32.911Z,102437.66
2022-10-17T17:44:59.994Z,102445.06
2022-10-17T17:47:29.469Z,102440.84
2022-10-17T17:49:56.921Z,102435.66
2022-10-17T17:52:23.863Z,102446.81
2022-10-17T17:54:51.111Z,102450.50
2022-10-17T17:57:18.554Z,102447.03
2022-10-17T17:59:45.538Z,102446.28
2022-10-17T18:02:12.629Z,102452.78
2022-10-17T18:04:39.645Z,102442.16
2022-10-17T18:07:06.773Z,102451.38
2022-10-17T18:09:33.837Z,102455.06
2022-10-17T18:12:00.810Z,102450.69
2022-10-17T18:14:27.846Z,102449.91
2022-10-17T18:16:54.800Z,102452.75
2022-10-17T18:19:23.800Z,102461.09
2022-10-17T18:21:50.737Z,102461.19
2022-10-17T18:24:17.597Z,102458.72
2022-10-17T18:26:44.691Z,102459.88
2022-10-17T18:29:12.849Z,102467.38
2022-10-17T18:31:39.818Z,102470.41
2022-10-17T18:34:06.934Z,102473.22
2022-10-17T18:36:35.516Z,102477.97
2022-10-17T18:39:04.707Z,102480.03
2022-10-17T18:41:32.221Z,102476.56
2022-10-17T18:43:59.376Z,102482.09
2022-10-17T18:46:40.830Z,102476.88
2022-10-17T18:49:09.900Z,102473.41
2022-10-17T18:51:37.543Z,102473.59
2022-10-17T18:54:04.919Z,102471.88
2022-10-17T18:56:32.059Z,102472.00
2022-10-17T18:59:00.292Z,102474.81
2022-10-17T19:01:28.537Z,102475.00
2022-10-17T19:03:58.654Z,102484.13
2022-10-17T19:06:31.719Z,102477.94
2022-10-17T19:09:02.415Z,102481.81
2022-10-17T19:11:31.938Z,102481.94
2022-10-17T19:14:02.590Z,102482.88
2022-10-17T19:16:34.610Z,102491.34
2022-10-17T19:19:05.991Z,102487.84
2022-10-17T19:21:34.606Z,102486.22
2022-10-17T19:24:04.941Z,102485.47
2022-10-17T19:26:36.176Z,102486.53
2022-10-17T19:29:04.816Z,102482.31
2022-10-17T19:31:33.749Z,102485.09
2022-10-17T19:34:01.171Z,102487.06
2022-10-17T19:36:33.758Z,102480.88
2022-10-17T19:39:23.362Z,102486.44
2022-10-17T19:41:50.660Z,102474.84
2022-10-17T19:44:18.346Z,102480.38
2022-10-17T19:46:47.046Z,102471.59
2022-10-17T19:49:14.853Z,102471.69
2022-10-17T19:51:41.869Z,102469.09
2022-10-17T19:54:09.748Z,102465.41
2022-10-17T19:56:38.391Z,102475.38
2022-10-17T19:59:07.465Z,102470.94
2022-10-17T20:01:38.869Z,102469.41
2022-10-17T20:04:08.649Z,102478.59
2022-10-17T20:06:35.772Z,102471.53
2022-10-17T20:09:05.092Z,102466.31
2022-10-17T20:11:32.586Z,102470.00
2022-10-17T20:14:01.995Z,102470.09
2022-10-17T20:16:33.327Z,102467.59
2022-10-17T20:19:11.168Z,102472.31
2022-10-17T20:21:39.894Z,102470.81
2022-10-17T20:24:11.217Z,102462.88
2022-10-17T20:26:39.625Z,102465.97
2022-10-17T20:29:15.631Z,102464.25
2022-10-17T20:31:44.999Z,102480.47
2022-10-17T20:34:15.269Z,102477.00
2022-10-17T20:36:42.576Z,102477.97
2022-10-17T20:39:12.310Z,102477.31
2022-10-17T20:41:39.884Z,102484.63
2022-10-17T20:44:07.533Z,102482.06
2022-10-17T20:46:38.307Z,102488.53
2022-10-17T20:49:13.720Z,102486.78
2022-10-17T20:51:41.281Z,102488.72
2022-10-17T20:54:08.368Z,102486.97
2022-10-17T20:56:36.026Z,102489.78
2022-10-17T20:59:12.365Z,102482.72
2022-10-17T21:01:40.009Z,102489.22
2022-10-17T21:04:33.318Z,102487.44
2022-10-17T21:06:53.971Z,102494.91
2022-10-17T21:09:22.219Z,102494.22
2022-10-17T21:11:55.681Z,102498.84
2022-10-17T21:14:24.987Z,102493.63
2022-10-17T21:16:52.412Z,102491.03
2022-10-17T21:19:20.063Z,102496.44
2022-10-17T21:21:47.640Z,102493.94
2022-10-17T21:24:18.089Z,102496.78
2022-10-17T21:26:47.980Z,102491.56
2022-10-17T21:29:15.192Z,102493.59
2022-10-17T21:31:44.679Z,102486.53
2022-10-17T21:34:18.485Z,102490.22
2022-10-17T21:36:45.807Z,102490.28
2022-10-17T21:39:14.661Z,102488.56
2022-10-17T21:41:43.204Z,102493.09
2022-10-17T21:44:18.435Z,102495.13
2022-10-17T21:46:46.476Z,102495.31
2022-10-17T21:49:16.403Z,102500.91
2022-10-17T21:51:44.629Z,102499.25
2022-10-17T21:54:12.087Z,102494.03
2022-10-17T21:56:39.559Z,102490.47
2022-10-17T21:59:07.153Z,102493.97
2022-10-17T22:01:37.913Z,102490.47
2022-10-17T22:04:11.478Z,102496.94
2022-10-17T22:06:41.311Z,102496.06
2022-10-17T22:09:15.858Z,102495.31
2022-10-17T22:11:47.475Z,102488.94
2022-10-17T22:14:18.274Z,102483.59
2022-10-17T22:16:46.843Z,102488.06
2022-10-17T22:19:18.877Z,102494.53
2022-10-17T22:21:46.088Z,102488.44
2022-10-17T22:24:16.110Z,102487.75
2022-10-17T22:26:44.682Z,102478.88
2022-10-17T22:29:12.375Z,102488.88
2022-10-17T22:31:39.923Z,102490.66
2022-10-17T22:34:08.099Z,102494.28
2022-10-17T22:36:35.619Z,102489.97
2022-10-17T22:39:04.145Z,102499.91
2022-10-17T22:41:31.617Z,102490.16
2022-10-17T22:43:58.647Z,102488.38
2022-10-17T22:46:25.952Z,102491.09
2022-10-17T22:48:53.034Z,102490.16
2022-10-17T22:51:20.820Z,102477.56
2022-10-17T22:53:47.835Z,102473.06
2022-10-17T22:56:18.799Z,102468.59
2022-10-17T22:58:46.663Z,102466.00
2022-10-17T23:01:21.511Z,102476.03
2022-10-17T23:03:49.262Z,102479.72
2022-10-17T23:06:16.892Z,102473.44
2022-10-17T23:08:44.422Z,102474.47
2022-10-17T23:11:11.743Z,102477.25
2022-10-17T23:13:40.752Z,102473.81
2022-10-17T23:16:08.566Z,102469.38
2022-10-17T23:18:37.302Z,102474.78
2022-10-17T23:21:04.812Z,102474.06
2022-10-17T23:23:31.782Z,102476.00
2022-10-17T23:26:11.427Z,102472.63
2022-10-17T23:28:38.644Z,102470.78
2022-10-17T23:31:19.126Z,102474.44
2022-10-17T23:33:48.420Z,102464.69
2022-10-17T23:36:19.298Z,102469.22
2022-10-17T23:38:47.493Z,102477.41
2022-10-17T23:41:15.251Z,102482.97
2022-10-17T23:43:43.489Z,102481.44
2022-10-17T23:46:11.358Z,102470.81
2022-10-17T23:48:38.968Z,102485.34
2022-10-17T23:51:07.645Z,102478.19
2022-10-17T23:53:36.343Z,102482.81
2022-10-17T23:56:04.301Z,102479.41
2022-10-17T23:58:31.491Z,102476.81
